createdAt,value
2023-05-21T00:01:16.681Z,96475.06
2023-05-21T00:03:21.850Z,96480.41
2023-05-21T00:05:26.931Z,96468.16
2023-05-21T00:07:31.761Z,96464.72
2023-05-21T00:09:38.387Z,96464.72
2023-05-21T00:11:45.917Z,96460.47
2023-05-21T00:13:50.836Z,96465.03
2023-05-21T00:15:56.019Z,96453.53
2023-05-21T00:18:01.028Z,96456.22
2023-05-21T00:20:09.168Z,96453.88
2023-05-21T00:22:14.467Z,96454.22
2023-05-21T00:24:19.273Z,96458.03
2023-05-21T00:26:24.420Z,96447.34
2023-05-21T00:28:35.336Z,96449.22
2023-05-21T00:30:40.352Z,96448.44
2023-05-21T00:32:45.404Z,96445.78
2023-05-21T00:34:50.806Z,96446.88
2023-05-21T00:36:56.042Z,96444.53
2023-05-21T00:39:02.622Z,96436.09
2023-05-21T00:41:07.864Z,96434.19
2023-05-21T00:43:14.493Z,96439.09
2023-05-21T00:45:24.288Z,96435.19
2023-05-21T00:47:29.888Z,96427.94
2023-05-21T00:49:35.330Z,96426.06
2023-05-21T00:51:40.372Z,96425.59
2023-05-21T00:53:47.614Z,96418.34
2023-05-21T00:55:53.822Z,96416.00
2023-05-21T00:57:58.855Z,96421.38
2023-05-21T01:00:05.026Z,96419.81
2023-05-21T01:02:14.492Z,96422.03
2023-05-21T01:04:20.626Z,96418.59
2023-05-21T01:06:25.490Z,96425.84
2023-05-21T01:08:30.947Z,96426.19
2023-05-21T01:10:36.112Z,96425.41
2023-05-21T01:12:42.844Z,96426.50
2023-05-21T01:14:48.285Z,96423.84
2023-05-21T01:16:53.808Z,96415.81
2023-05-21T01:19:03.619Z,96421.50
2023-05-21T01:21:09.953Z,96415.38
2023-05-21T01:23:18.025Z,96414.16
2023-05-21T01:25:23.131Z,96409.16
2023-05-21T01:27:27.949Z,96411.81
2023-05-21T01:29:32.910Z,96410.59
2023-05-21T01:31:45.279Z,96410.94
2023-05-21T01:33:52.880Z,96402.81
2023-05-21T01:36:02.866Z,96419.97
2023-05-21T01:38:15.195Z,96405.06
2023-05-21T01:40:28.771Z,96409.19
2023-05-21T01:42:35.111Z,96403.03
2023-05-21T01:44:40.702Z,96407.63
2023-05-21T01:46:45.709Z,96401.50
2023-05-21T01:48:51.901Z,96404.19
2023-05-21T01:50:58.218Z,96411.41
2023-05-21T01:53:04.142Z,96401.03
2023-05-21T01:55:09.809Z,96405.63
2023-05-21T01:57:17.331Z,96406.69
2023-05-21T01:59:22.389Z,96413.94
2023-05-21T02:01:27.277Z,96412.88
2023-05-21T02:03:32.573Z,96413.19
2023-05-21T02:05:37.864Z,96420.41
2023-05-21T02:07:44.039Z,96416.16
2023-05-21T02:09:49.153Z,96417.31
2023-05-21T02:11:55.957Z,96418.41
2023-05-21T02:14:04.102Z,96425.19
2023-05-21T02:16:10.404Z,96420.19
2023-05-21T02:18:17.086Z,96412.50
2023-05-21T02:20:23.009Z,96414.75
2023-05-21T02:22:27.854Z,96415.84
2023-05-21T02:24:32.850Z,96423.88
2023-05-21T02:26:37.676Z,96415.44
2023-05-21T02:28:42.538Z,96421.09
2023-05-21T02:30:49.953Z,96420.31
2023-05-21T02:32:55.130Z,96418.44
2023-05-21T02:35:00.131Z,96410.75
2023-05-21T02:37:05.063Z,96408.84
2023-05-21T02:39:09.876Z,96412.63
2023-05-21T02:41:15.144Z,96406.84
2023-05-21T02:43:21.038Z,96403.72
2023-05-21T02:45:25.993Z,96408.28
2023-05-21T02:47:33.919Z,96407.88
2023-05-21T02:49:39.154Z,96417.00
2023-05-21T02:51:44.133Z,96398.94
2023-05-21T02:53:49.015Z,96395.06
2023-05-21T02:55:54.152Z,96395.06
2023-05-21T02:57:59.077Z,96403.41
2023-05-21T03:00:05.287Z,96405.97
2023-05-21T03:02:10.837Z,96402.06
2023-05-21T03:04:18.657Z,96397.84
2023-05-21T03:06:23.474Z,96389.06
2023-05-21T03:08:28.385Z,96382.91
2023-05-21T03:10:33.365Z,96390.94
2023-05-21T03:12:38.214Z,96382.13
2023-05-21T03:14:44.251Z,96376.03
2023-05-21T03:16:49.391Z,96379.03
2023-05-21T03:18:56.123Z,96387.06
2023-05-21T03:21:04.594Z,96381.25
2023-05-21T03:23:09.807Z,96371.66
2023-05-21T03:25:15.001Z,96361.31
2023-05-21T03:27:19.923Z,96371.56
2023-05-21T03:29:26.144Z,96381.50
2023-05-21T03:31:31.176Z,96371.13
2023-05-21T03:33:47.653Z,96390.94
2023-05-21T03:36:06.175Z,96371.47
2023-05-21T03:38:14.793Z,96389.38
2023-05-21T03:40:20.086Z,96384.38
2023-05-21T03:42:25.015Z,96384.38
2023-05-21T03:44:33.002Z,96383.59
2023-05-21T03:46:58.062Z,96388.47
2023-05-21T03:49:08.747Z,96380.78
2023-05-21T03:51:20.343Z,96380.03
2023-05-21T03:53:25.786Z,96384.28
2023-05-21T03:55:31.137Z,96376.94
2023-05-21T03:57:36.105Z,96392.94
2023-05-21T03:59:40.936Z,96390.59
2023-05-21T04:01:46.064Z,96374.91
2023-05-21T04:03:54.083Z,96390.16
2023-05-21T04:06:01.811Z,96393.59
2023-05-21T04:08:09.299Z,96386.72
2023-05-21T04:10:15.042Z,96385.56
2023-05-21T04:12:20.424Z,96389.03
2023-05-21T04:14:26.205Z,96383.38
2023-05-21T04:16:31.378Z,96385.72
2023-05-21T04:18:36.308Z,96383.38
2023-05-21T04:20:41.580Z,96384.13
2023-05-21T04:22:46.490Z,96383.38
2023-05-21T04:24:54.803Z,96387.16
2023-05-21T04:27:04.720Z,96388.25
2023-05-21T04:29:10.116Z,96388.72
2023-05-21T04:31:15.909Z,96394.06
2023-05-21T04:33:20.948Z,96401.28
2023-05-21T04:35:26.291Z,96405.84
2023-05-21T04:37:31.643Z,96402.06
2023-05-21T04:39:37.085Z,96391.38
2023-05-21T04:41:45.103Z,96385.25
2023-05-21T04:43:49.993Z,96389.47
2023-05-21T04:45:55.227Z,96402.84
2023-05-21T04:48:03.263Z,96390.59
2023-05-21T04:50:10.670Z,96389.81
2023-05-21T04:52:15.993Z,96394.38
2023-05-21T04:54:21.517Z,96388.25
2023-05-21T04:56:26.628Z,96403.50
2023-05-21T04:58:34.750Z,96394.72
2023-05-21T05:00:42.441Z,96394.38
2023-05-21T05:02:47.534Z,96401.28
2023-05-21T05:04:52.658Z,96403.94
2023-05-21T05:06:57.550Z,96403.16
2023-05-21T05:09:02.735Z,96405.84
2023-05-21T05:11:08.792Z,96405.84
2023-05-21T05:13:13.899Z,96399.41
2023-05-21T05:15:21.471Z,96397.41
2023-05-21T05:17:27.695Z,96404.75
2023-05-21T05:19:32.731Z,96406.31
2023-05-21T05:21:37.985Z,96404.06
2023-05-21T05:23:42.879Z,96397.63
2023-05-21T05:25:47.814Z,96398.72
2023-05-21T05:27:52.802Z,96402.16
2023-05-21T05:29:57.690Z,96392.28
2023-05-21T05:32:05.231Z,96399.16
2023-05-21T05:34:10.105Z,96404.16
2023-05-21T05:36:16.729Z,96403.06
2023-05-21T05:38:21.950Z,96404.31
2023-05-21T05:40:26.751Z,96406.97
2023-05-21T05:42:32.113Z,96401.63
2023-05-21T05:44:40.236Z,96408.53
2023-05-21T05:46:45.977Z,96408.53
2023-05-21T05:48:53.510Z,96410.06
2023-05-21T05:50:58.447Z,96410.53
2023-05-21T05:53:04.565Z,96410.97
2023-05-21T05:55:12.265Z,96404.97
2023-05-21T05:57:17.365Z,96409.97
2023-05-21T05:59:24.321Z,96409.63
2023-05-21T06:01:34.556Z,96414.97
2023-05-21T06:03:39.798Z,96410.44
2023-05-21T06:05:52.783Z,96408.53
2023-05-21T06:07:58.071Z,96408.97
2023-05-21T06:10:03.191Z,96414.00
2023-05-21T06:12:12.266Z,96411.00
2023-05-21T06:14:19.689Z,96411.75
2023-05-21T06:16:24.649Z,96413.31
2023-05-21T06:18:31.121Z,96403.41
2023-05-21T06:20:36.032Z,96409.19
2023-05-21T06:22:44.232Z,96413.41
2023-05-21T06:24:49.237Z,96405.84
2023-05-21T06:26:54.206Z,96408.50
2023-05-21T06:29:00.156Z,96402.53
2023-05-21T06:31:04.995Z,96400.63
2023-05-21T06:33:11.795Z,96402.94
2023-05-21T06:35:16.908Z,96405.28
2023-05-21T06:37:25.914Z,96401.50
2023-05-21T06:39:34.014Z,96396.50
2023-05-21T06:41:39.033Z,96398.84
2023-05-21T06:44:01.566Z,96411.88
2023-05-21T06:46:24.821Z,96409.75
2023-05-21T06:48:30.754Z,96409.53
2023-05-21T06:50:36.135Z,96408.84
2023-05-21T06:52:41.146Z,96412.41
2023-05-21T06:54:48.787Z,96418.19
2023-05-21T06:56:53.832Z,96427.44
2023-05-21T06:58:59.578Z,96421.75
2023-05-21T07:01:06.220Z,96415.41
2023-05-21T07:03:11.485Z,96415.84
2023-05-21T07:05:16.381Z,96414.41
2023-05-21T07:07:21.514Z,96412.97
2023-05-21T07:09:26.783Z,96406.94
2023-05-21T07:11:34.387Z,96410.06
2023-05-21T07:13:40.928Z,96422.31
2023-05-21T07:15:45.965Z,96409.41
2023-05-21T07:17:51.363Z,96413.28
2023-05-21T07:19:56.718Z,96407.28
2023-05-21T07:22:02.628Z,96411.94
2023-05-21T07:24:07.663Z,96412.03
2023-05-21T07:26:16.215Z,96414.38
2023-05-21T07:28:24.086Z,96408.66
2023-05-21T07:30:28.885Z,96406.88
2023-05-21T07:32:34.006Z,96407.66
2023-05-21T07:34:38.870Z,96418.47
2023-05-21T07:36:43.934Z,96415.44
2023-05-21T07:38:49.867Z,96414.78
2023-05-21T07:40:57.056Z,96423.69
2023-05-21T07:43:02.249Z,96415.75
2023-05-21T07:45:12.516Z,96427.31
2023-05-21T07:47:20.705Z,96424.75
2023-05-21T07:49:25.954Z,96417.16
2023-05-21T07:51:31.515Z,96418.81
2023-05-21T07:53:36.757Z,96418.13
2023-05-21T07:55:48.132Z,96418.25
2023-05-21T07:57:56.797Z,96427.16
2023-05-21T08:00:09.704Z,96418.09
2023-05-21T08:02:22.752Z,96422.75
2023-05-21T08:04:28.257Z,96429.78
2023-05-21T08:06:34.355Z,96427.63
2023-05-21T08:08:39.874Z,96419.38
2023-05-21T08:10:44.853Z,96432.50
2023-05-21T08:12:49.907Z,96427.66
2023-05-21T08:14:55.677Z,96438.47
2023-05-21T08:17:01.453Z,96436.31
2023-05-21T08:19:10.243Z,96429.56
2023-05-21T08:21:16.032Z,96419.38
2023-05-21T08:23:21.646Z,96423.72
2023-05-21T08:25:31.120Z,96430.03
2023-05-21T08:27:38.675Z,96430.56
2023-05-21T08:29:43.825Z,96427.59
2023-05-21T08:31:48.862Z,96425.44
2023-05-21T08:33:54.426Z,96425.94
2023-05-21T08:36:11.399Z,96433.31
2023-05-21T08:38:23.026Z,96442.22
2023-05-21T08:40:41.770Z,96438.16
2023-05-21T08:42:48.486Z,96427.19
2023-05-21T08:45:02.269Z,96422.69
2023-05-21T08:47:10.618Z,96433.88
2023-05-21T08:49:17.745Z,96436.31
2023-05-21T08:51:25.542Z,96429.13
2023-05-21T08:53:31.602Z,96425.38
2023-05-21T08:55:39.100Z,96433.94
2023-05-21T08:57:46.874Z,96429.44
2023-05-21T08:59:54.573Z,96421.53
2023-05-21T09:02:04.942Z,96430.16
2023-05-21T09:04:21.197Z,96430.34
2023-05-21T09:06:34.357Z,96431.03
2023-05-21T09:08:46.663Z,96434.00
2023-05-21T09:11:04.709Z,96429.31
2023-05-21T09:13:17.496Z,96445.34
2023-05-21T09:15:23.056Z,96426.00
2023-05-21T09:17:28.148Z,96442.41
2023-05-21T09:19:41.373Z,96436.50
2023-05-21T09:21:49.094Z,96441.34
2023-05-21T09:23:59.321Z,96445.38
2023-05-21T09:26:04.498Z,96448.22
2023-05-21T09:28:15.221Z,96447.25
2023-05-21T09:30:24.808Z,96435.09
2023-05-21T09:32:31.981Z,96426.41
2023-05-21T09:34:39.097Z,96433.84
2023-05-21T09:36:44.482Z,96433.19
2023-05-21T09:38:57.981Z,96435.97
2023-05-21T09:41:07.397Z,96432.66
2023-05-21T09:43:17.074Z,96440.44
2023-05-21T09:45:22.758Z,96428.66
2023-05-21T09:47:29.532Z,96440.34
2023-05-21T09:49:35.141Z,96441.25
2023-05-21T09:51:41.925Z,96437.50
2023-05-21T09:53:51.910Z,96435.69
2023-05-21T09:56:01.293Z,96424.22
2023-05-21T09:58:06.401Z,96422.41
2023-05-21T10:00:13.409Z,96435.19
2023-05-21T10:02:21.122Z,96426.78
2023-05-21T10:04:26.695Z,96421.06
2023-05-21T10:06:33.894Z,96429.63
2023-05-21T10:08:40.271Z,96428.50
2023-05-21T10:10:46.665Z,96433.59
2023-05-21T10:12:58.033Z,96439.84
2023-05-21T10:15:04.387Z,96430.25
2023-05-21T10:17:09.674Z,96429.91
2023-05-21T10:19:16.098Z,96423.78
2023-05-21T10:21:21.694Z,96431.19
2023-05-21T10:23:26.878Z,96430.81
2023-05-21T10:25:33.932Z,96428.53
2023-05-21T10:27:39.891Z,96427.06
2023-05-21T10:29:48.321Z,96438.66
2023-05-21T10:31:56.107Z,96417.81
2023-05-21T10:34:02.042Z,96423.25
2023-05-21T10:36:08.148Z,96412.44
2023-05-21T10:38:14.130Z,96417.50
2023-05-21T10:40:19.177Z,96417.09
2023-05-21T10:42:46.674Z,96420.97
2023-05-21T10:45:07.295Z,96409.00
2023-05-21T10:47:34.791Z,96417.88
2023-05-21T10:49:57.550Z,96418.28
2023-05-21T10:52:11.286Z,96417.88
2023-05-21T10:54:54.600Z,96413.22
2023-05-21T10:57:06.564Z,96414.75
2023-05-21T10:59:22.395Z,96416.69
2023-05-21T11:01:34.118Z,96415.13
2023-05-21T11:03:40.736Z,96414.38
2023-05-21T11:05:55.557Z,96414.75
2023-05-21T11:08:01.776Z,96416.66
2023-05-21T11:10:34.587Z,96413.19
2023-05-21T11:12:39.675Z,96413.56
2023-05-21T11:14:44.803Z,96417.78
2023-05-21T11:16:52.334Z,96418.97
2023-05-21T11:19:04.522Z,96414.66
2023-05-21T11:21:12.312Z,96410.38
2023-05-21T11:23:18.196Z,96416.19
2023-05-21T11:25:23.084Z,96411.53
2023-05-21T11:27:36.075Z,96409.97
2023-05-21T11:29:41.488Z,96408.06
2023-05-21T11:31:49.461Z,96404.59
2023-05-21T11:34:14.964Z,96414.63
2023-05-21T11:36:19.828Z,96415.38
2023-05-21T11:38:24.821Z,96413.47
2023-05-21T11:40:31.180Z,96424.69
2023-05-21T11:42:37.362Z,96404.59
2023-05-21T11:44:42.964Z,96406.91
2023-05-21T11:46:49.195Z,96408.50
2023-05-21T11:48:55.565Z,96405.84
2023-05-21T11:51:04.082Z,96405.44
2023-05-21T11:53:09.229Z,96405.81
2023-05-21T11:55:15.906Z,96402.75
2023-05-21T11:57:21.573Z,96403.16
2023-05-21T11:59:26.528Z,96406.63
2023-05-21T12:01:31.352Z,96406.22
2023-05-21T12:03:37.904Z,96395.41
2023-05-21T12:05:47.958Z,96387.69
2023-05-21T12:07:56.862Z,96407.78
2023-05-21T12:10:01.818Z,96400.03
2023-05-21T12:12:07.688Z,96406.63
2023-05-21T12:14:13.457Z,96396.97
2023-05-21T12:16:18.513Z,96399.66
2023-05-21T12:18:24.129Z,96394.25
2023-05-21T12:20:30.704Z,96401.59
2023-05-21T12:22:35.921Z,96411.63
2023-05-21T12:24:44.002Z,96400.81
2023-05-21T12:26:49.751Z,96396.56
2023-05-21T12:28:55.452Z,96396.16
2023-05-21T12:31:00.409Z,96388.41
2023-05-21T12:33:05.747Z,96398.06
2023-05-21T12:35:11.689Z,96388.03
2023-05-21T12:37:20.693Z,96393.44
2023-05-21T12:39:25.581Z,96397.69
2023-05-21T12:41:33.118Z,96401.19
2023-05-21T12:43:37.978Z,96394.19
2023-05-21T12:45:43.384Z,96384.53
2023-05-21T12:47:56.567Z,96391.50
2023-05-21T12:50:02.431Z,96390.72
2023-05-21T12:52:09.009Z,96391.88
2023-05-21T12:54:16.965Z,96394.97
2023-05-21T12:56:21.961Z,96393.81
2023-05-21T12:58:29.402Z,96393.03
2023-05-21T13:00:36.168Z,96386.50
2023-05-21T13:02:42.856Z,96398.06
2023-05-21T13:04:49.650Z,96395.75
2023-05-21T13:06:54.794Z,96390.34
2023-05-21T13:08:59.548Z,96401.13
2023-05-21T13:11:04.829Z,96389.56
2023-05-21T13:13:09.827Z,96394.19
2023-05-21T13:15:17.579Z,96392.28
2023-05-21T13:17:23.021Z,96385.31
2023-05-21T13:19:28.052Z,96388.00
2023-05-21T13:21:32.948Z,96389.94
2023-05-21T13:23:38.263Z,96374.50
2023-05-21T13:25:43.191Z,96385.31
2023-05-21T13:27:48.197Z,96384.53
2023-05-21T13:29:53.019Z,96385.69
2023-05-21T13:32:00.477Z,96381.44
2023-05-21T13:34:05.652Z,96379.88
2023-05-21T13:36:11.103Z,96381.06
2023-05-21T13:38:16.055Z,96366.00
2023-05-21T13:40:21.066Z,96374.09
2023-05-21T13:42:26.343Z,96373.34
2023-05-21T13:44:33.543Z,96369.84
2023-05-21T13:46:39.708Z,96368.69
2023-05-21T13:48:47.628Z,96366.38
2023-05-21T13:50:52.789Z,96369.47
2023-05-21T13:52:57.826Z,96366.75
2023-05-21T13:55:02.754Z,96364.84
2023-05-21T13:57:07.952Z,96364.84
2023-05-21T13:59:12.808Z,96371.00
2023-05-21T14:01:17.907Z,96370.25
2023-05-21T14:03:23.221Z,96373.72
2023-05-21T14:05:30.727Z,96360.22
2023-05-21T14:07:35.897Z,96372.56
2023-05-21T14:09:41.200Z,96348.25
2023-05-21T14:11:46.573Z,96359.06
2023-05-21T14:13:51.528Z,96366.38
2023-05-21T14:15:56.835Z,96367.16
2023-05-21T14:18:02.199Z,96370.63
2023-05-21T14:20:07.895Z,96370.25
2023-05-21T14:22:15.485Z,96369.06
2023-05-21T14:24:20.261Z,96373.72
2023-05-21T14:26:25.226Z,96371.00
2023-05-21T14:28:30.187Z,96362.91
2023-05-21T14:30:35.458Z,96369.47
2023-05-21T14:32:40.953Z,96372.16
2023-05-21T14:34:45.871Z,96361.34
2023-05-21T14:36:50.655Z,96367.16
2023-05-21T14:38:58.093Z,96367.16
2023-05-21T14:41:03.201Z,96361.75
2023-05-21T14:43:08.712Z,96356.72
2023-05-21T14:45:19.063Z,96358.66
2023-05-21T14:47:24.410Z,96359.81
2023-05-21T14:49:29.264Z,96356.72
2023-05-21T14:51:34.474Z,96363.69
2023-05-21T14:53:39.527Z,96355.97
2023-05-21T14:55:47.345Z,96355.97
2023-05-21T14:57:52.107Z,96354.41
2023-05-21T14:59:56.948Z,96352.47
2023-05-21T15:02:02.091Z,96343.59
2023-05-21T15:04:08.175Z,96357.50
2023-05-21T15:06:15.627Z,96356.72
2023-05-21T15:08:21.148Z,96347.44
2023-05-21T15:10:27.072Z,96350.16
2023-05-21T15:12:34.662Z,96346.69
2023-05-21T15:14:40.140Z,96340.13
2023-05-21T15:16:45.228Z,96341.28
2023-05-21T15:18:50.457Z,96346.69
2023-05-21T15:20:55.828Z,96341.28
2023-05-21T15:25:10.497Z,96340.91
2023-05-21T15:27:15.393Z,96338.59
2023-05-21T15:29:23.195Z,96334.31
2023-05-21T15:31:28.087Z,96346.69
2023-05-21T15:33:33.204Z,96334.31
2023-05-21T15:35:39.376Z,96338.97
2023-05-21T15:37:45.649Z,96340.53
2023-05-21T15:39:53.490Z,96347.06
2023-05-21T15:41:58.586Z,96342.06
2023-05-21T15:44:03.581Z,96334.72
2023-05-21T15:46:12.782Z,96335.88
2023-05-21T15:48:22.762Z,96331.25
2023-05-21T15:50:27.700Z,96326.59
2023-05-21T15:52:32.523Z,96332.00
2023-05-21T15:54:37.340Z,96331.63
2023-05-21T15:56:42.251Z,96333.56
2023-05-21T15:58:47.345Z,96330.88
2023-05-21T16:00:52.245Z,96337.41
2023-05-21T16:02:59.809Z,96331.25
2023-05-21T16:05:05.027Z,96334.31
2023-05-21T16:07:10.110Z,96342.44
2023-05-21T16:09:15.073Z,96327.00
2023-05-21T16:11:20.082Z,96341.66
2023-05-21T16:13:25.026Z,96330.06
2023-05-21T16:15:32.551Z,96333.16
2023-05-21T16:17:37.404Z,96330.47
2023-05-21T16:19:44.940Z,96334.31
2023-05-21T16:21:49.840Z,96334.69
2023-05-21T16:23:55.037Z,96340.09
2023-05-21T16:26:00.177Z,96338.56
2023-05-21T16:28:05.066Z,96337.00
2023-05-21T16:30:12.012Z,96342.41
2023-05-21T16:32:17.174Z,96335.44
2023-05-21T16:34:22.250Z,96328.16
2023-05-21T16:36:29.914Z,96328.53
2023-05-21T16:38:34.787Z,96326.97
2023-05-21T16:40:40.788Z,96327.34
2023-05-21T16:42:45.757Z,96326.56
2023-05-21T16:44:50.913Z,96326.97
2023-05-21T16:46:56.212Z,96322.34
2023-05-21T16:49:01.544Z,96328.13
2023-05-21T16:51:06.638Z,96335.03
2023-05-21T16:53:14.094Z,96331.59
2023-05-21T16:55:19.100Z,96331.19
2023-05-21T16:57:24.358Z,96332.31
2023-05-21T16:59:29.355Z,96326.53
2023-05-21T17:01:34.540Z,96333.09
2023-05-21T17:03:41.011Z,96330.75
2023-05-21T17:05:48.286Z,96338.47
2023-05-21T17:07:53.718Z,96323.44
2023-05-21T17:10:01.529Z,96322.25
2023-05-21T17:12:06.990Z,96319.56
2023-05-21T17:14:13.644Z,96321.13
2023-05-21T17:16:25.459Z,96319.56
2023-05-21T17:18:31.689Z,96319.94
2023-05-21T17:20:36.623Z,96317.63
2023-05-21T17:22:41.927Z,96320.31
2023-05-21T17:24:47.065Z,96321.84
2023-05-21T17:26:56.371Z,96317.59
2023-05-21T17:29:01.533Z,96327.97
2023-05-21T17:31:07.265Z,96318.69
2023-05-21T17:33:12.362Z,96323.34
2023-05-21T17:35:17.627Z,96326.41
2023-05-21T17:37:22.554Z,96331.03
2023-05-21T17:39:27.946Z,96326.00
2023-05-21T17:41:32.932Z,96336.03
2023-05-21T17:43:40.398Z,96336.03
2023-05-21T17:45:45.729Z,96334.47
2023-05-21T17:47:50.780Z,96338.31
2023-05-21T17:49:56.023Z,96336.75
2023-05-21T17:52:03.412Z,96339.84
2023-05-21T17:54:08.801Z,96342.91
2023-05-21T17:56:14.101Z,96345.63
2023-05-21T17:58:18.960Z,96342.53
2023-05-21T18:00:26.767Z,96363.72
2023-05-21T18:02:31.996Z,96347.53
2023-05-21T18:04:37.064Z,96353.28
2023-05-21T18:06:42.296Z,96345.56
2023-05-21T18:08:47.358Z,96356.75
2023-05-21T18:10:52.281Z,96358.69
2023-05-21T18:12:57.468Z,96358.28
2023-05-21T18:15:02.491Z,96359.44
2023-05-21T18:17:10.080Z,96352.88
2023-05-21T18:19:15.080Z,96350.53
2023-05-21T18:21:20.147Z,96352.84
2023-05-21T18:23:25.078Z,96351.69
2023-05-21T18:25:30.332Z,96353.19
2023-05-21T18:27:35.170Z,96357.03
2023-05-21T18:29:40.190Z,96364.75
2023-05-21T18:31:47.111Z,96358.97
2023-05-21T18:33:55.109Z,96360.47
2023-05-21T18:36:00.477Z,96358.91
2023-05-21T18:38:10.049Z,96363.13
2023-05-21T18:40:17.661Z,96363.13
2023-05-21T18:42:22.460Z,96360.00
2023-05-21T18:44:27.542Z,96357.28
2023-05-21T18:46:32.477Z,96365.75
2023-05-21T18:48:37.342Z,96363.00
2023-05-21T18:50:45.169Z,96366.44
2023-05-21T18:52:51.585Z,96367.19
2023-05-21T18:54:57.144Z,96376.03
2023-05-21T18:57:02.238Z,96373.72
2023-05-21T18:59:07.897Z,96372.53
2023-05-21T19:01:13.012Z,96370.19
2023-05-21T19:03:18.166Z,96372.50
2023-05-21T19:05:23.451Z,96375.56
2023-05-21T19:07:31.119Z,96390.94
2023-05-21T19:09:35.955Z,96383.22
2023-05-21T19:11:40.911Z,96374.72
2023-05-21T19:13:47.267Z,96393.19
2023-05-21T19:15:52.219Z,96389.31
2023-05-21T19:17:57.225Z,96393.94
2023-05-21T19:20:02.303Z,96393.19
2023-05-21T19:22:07.447Z,96392.75
2023-05-21T19:24:14.998Z,96389.25
2023-05-21T19:26:20.106Z,96383.47
2023-05-21T19:28:25.171Z,96394.63
2023-05-21T19:30:30.093Z,96389.97
2023-05-21T19:32:35.369Z,96390.34
2023-05-21T19:34:40.662Z,96395.69
2023-05-21T19:36:53.406Z,96393.34
2023-05-21T19:38:59.022Z,96392.13
2023-05-21T19:41:06.467Z,96391.31
2023-05-21T19:43:13.010Z,96387.88
2023-05-21T19:45:18.182Z,96396.31
2023-05-21T19:47:23.347Z,96397.06
2023-05-21T19:49:28.360Z,96386.66
2023-05-21T19:51:33.170Z,96394.28
2023-05-21T19:53:38.373Z,96381.56
2023-05-21T19:55:44.616Z,96398.09
2023-05-21T19:57:52.379Z,96388.06
2023-05-21T19:59:57.260Z,96402.66
2023-05-21T20:02:02.497Z,96396.88
2023-05-21T20:04:07.965Z,96396.81
2023-05-21T20:06:12.941Z,96390.28
2023-05-21T20:08:18.461Z,96396.00
2023-05-21T20:10:24.165Z,96384.81
2023-05-21T20:12:29.236Z,96393.28
2023-05-21T20:14:37.022Z,96388.63
2023-05-21T20:16:42.505Z,96398.63
2023-05-21T20:18:48.254Z,96397.00
2023-05-21T20:20:53.170Z,96398.53
2023-05-21T20:23:03.377Z,96394.66
2023-05-21T20:25:10.785Z,96395.78
2023-05-21T20:27:19.647Z,96400.78
2023-05-21T20:29:24.543Z,96400.78
2023-05-21T20:31:32.481Z,96386.88
2023-05-21T20:33:41.017Z,96391.50
2023-05-21T20:35:46.058Z,96401.44
2023-05-21T20:37:52.780Z,96386.78
2023-05-21T20:39:58.427Z,96396.03
2023-05-21T20:42:03.472Z,96388.31
2023-05-21T20:44:09.390Z,96387.91
2023-05-21T20:46:14.497Z,96384.44
2023-05-21T20:48:22.316Z,96382.13
2023-05-21T20:50:29.145Z,96389.75
2023-05-21T20:52:37.225Z,96394.38
2023-05-21T20:54:42.803Z,96389.72
2023-05-21T20:56:50.937Z,96381.25
2023-05-21T20:58:55.912Z,96392.34
2023-05-21T21:01:02.243Z,96385.44
2023-05-21T21:03:10.631Z,96389.25
2023-05-21T21:05:20.245Z,96390.00
2023-05-21T21:07:25.528Z,96389.22
2023-05-21T21:09:30.698Z,96396.47
2023-05-21T21:11:35.582Z,96394.16
2023-05-21T21:13:41.113Z,96393.38
2023-05-21T21:15:46.254Z,96395.66
2023-05-21T21:17:51.503Z,96404.16
2023-05-21T21:19:56.421Z,96401.47
2023-05-21T21:22:04.198Z,96401.81
2023-05-21T21:24:10.086Z,96399.50
2023-05-21T21:26:15.015Z,96398.69
2023-05-21T21:28:19.861Z,96390.22
2023-05-21T21:30:24.792Z,96395.97
2023-05-21T21:32:29.957Z,96394.06
2023-05-21T21:34:34.848Z,96389.81
2023-05-21T21:36:39.764Z,96390.59
2023-05-21T21:38:47.393Z,96394.00
2023-05-21T21:40:52.549Z,96394.38
2023-05-21T21:42:57.481Z,96392.81
2023-05-21T21:45:02.353Z,96388.94
2023-05-21T21:47:07.909Z,96387.41
2023-05-21T21:49:14.755Z,96386.97
2023-05-21T21:51:23.207Z,96395.41
2023-05-21T21:53:28.492Z,96396.13
2023-05-21T21:55:36.200Z,96391.13
2023-05-21T21:57:42.073Z,96391.13
2023-05-21T21:59:46.995Z,96397.97
2023-05-21T22:01:52.119Z,96398.34
2023-05-21T22:03:58.065Z,96392.56
2023-05-21T22:06:03.006Z,96395.63
2023-05-21T22:08:08.675Z,96384.03
2023-05-21T22:10:14.309Z,96385.53
2023-05-21T22:12:22.846Z,96388.94
2023-05-21T22:14:28.083Z,96394.25
2023-05-21T22:16:33.592Z,96395.41
2023-05-21T22:18:41.013Z,96393.84
2023-05-21T22:20:46.876Z,96394.19
2023-05-21T22:22:55.209Z,96395.31
2023-05-21T22:25:00.577Z,96396.84
2023-05-21T22:27:05.442Z,96399.53
2023-05-21T22:29:13.605Z,96395.28
2023-05-21T22:31:19.236Z,96406.81
2023-05-21T22:33:24.563Z,96402.22
2023-05-21T22:35:29.508Z,96410.28
2023-05-21T22:37:34.905Z,96411.06
2023-05-21T22:39:39.982Z,96409.13
2023-05-21T22:41:45.032Z,96413.75
2023-05-21T22:43:49.884Z,96415.66
2023-05-21T22:45:57.540Z,96406.41
2023-05-21T22:48:03.530Z,96408.28
2023-05-21T22:50:10.429Z,96407.53
2023-05-21T22:52:16.791Z,96409.00
2023-05-21T22:54:21.700Z,96407.84
2023-05-21T22:56:26.791Z,96409.31
2023-05-21T22:58:31.897Z,96415.06
2023-05-21T23:00:37.202Z,96406.91
2023-05-21T23:02:45.006Z,96400.31
2023-05-21T23:04:50.539Z,96409.09
2023-05-21T23:06:55.463Z,96402.56
2023-05-21T23:09:00.409Z,96407.84
2023-05-21T23:11:05.413Z,96398.19
2023-05-21T23:13:10.243Z,96400.78
2023-05-21T23:15:15.468Z,96402.31
2023-05-21T23:17:20.412Z,96403.03
2023-05-21T23:19:28.162Z,96401.38
2023-05-21T23:21:33.173Z,96400.97
2023-05-21T23:23:38.064Z,96405.13
2023-05-21T23:25:43.165Z,96402.41
2023-05-21T23:27:48.236Z,96402.31
2023-05-21T23:29:53.248Z,96398.78
2023-05-21T23:31:58.412Z,96395.28
2023-05-21T23:34:04.922Z,96397.88
2023-05-21T23:36:13.428Z,96396.28
2023-05-21T23:38:18.280Z,96399.31
2023-05-21T23:40:23.480Z,96398.47
2023-05-21T23:42:28.442Z,96396.91
2023-05-21T23:44:33.429Z,96399.94
2023-05-21T23:46:38.393Z,96399.53
2023-05-21T23:48:43.344Z,96399.13
2023-05-21T23:50:48.167Z,96404.50
2023-05-21T23:52:55.871Z,96399.03
2023-05-21T23:55:00.841Z,96404.41
2023-05-21T23:57:05.742Z,96406.31
2023-05-21T23:59:10.685Z,96410.88
